sensor_id;sensor_type;location;lat;lon;timestamp;temperature;humidity
18317;DHT22;9284;52.298;21.164;2022-12-18T00:00:16;-5.10;99.90
18317;DHT22;9284;52.298;21.164;2022-12-18T00:02:47;-5.20;99.90
18317;DHT22;9284;52.298;21.164;2022-12-18T00:05:20;-5.20;1.00
18317;DHT22;9284;52.298;21.164;2022-12-18T00:07:53;-5.20;1.00
18317;DHT22;9284;52.298;21.164;2022-12-18T00:10:24;-5.20;1.00
18317;DHT22;9284;52.298;21.164;2022-12-18T00:12:56;-5.10;1.00
18317;DHT22;9284;52.298;21.164;2022-12-18T00:15:24;-5.20;1.00
18317;DHT22;9284;52.298;21.164;2022-12-18T00:17:55;-5.00;1.00
18317;DHT22;9284;52.298;21.164;2022-12-18T00:20:35;-5.20;1.00
18317;DHT22;9284;52.298;21.164;2022-12-18T00:23:05;-5.20;1.00
18317;DHT22;9284;52.298;21.164;2022-12-18T00:25:33;-5.10;99.90
18317;DHT22;9284;52.298;21.164;2022-12-18T00:28:03;-5.10;99.90
18317;DHT22;9284;52.298;21.164;2022-12-18T00:30:31;-5.10;99.90
18317;DHT22;9284;52.298;21.164;2022-12-18T00:33:04;-5.20;99.90
18317;DHT22;9284;52.298;21.164;2022-12-18T00:35:34;-5.10;99.90
18317;DHT22;9284;52.298;21.164;2022-12-18T00:38:04;-5.10;99.90
18317;DHT22;9284;52.298;21.164;2022-12-18T00:40:33;-5.10;99.90
18317;DHT22;9284;52.298;21.164;2022-12-18T00:43:12;-5.00;99.90
18317;DHT22;9284;52.298;21.164;2022-12-18T00:45:41;-5.00;99.90
18317;DHT22;9284;52.298;21.164;2022-12-18T00:48:10;-5.10;1.00
18317;DHT22;9284;52.298;21.164;2022-12-18T00:50:40;-5.10;99.90
18317;DHT22;9284;52.298;21.164;2022-12-18T00:53:12;-5.00;99.90
18317;DHT22;9284;52.298;21.164;2022-12-18T00:55:41;-5.10;99.90
18317;DHT22;9284;52.298;21.164;2022-12-18T00:58:10;-5.00;99.90
18317;DHT22;9284;52.298;21.164;2022-12-18T01:00:40;-5.00;1.00
18317;DHT22;9284;52.298;21.164;2022-12-18T01:03:13;-5.00;1.00
18317;DHT22;9284;52.298;21.164;2022-12-18T01:05:47;-4.90;99.90
18317;DHT22;9284;52.298;21.164;2022-12-18T01:08:21;-4.80;99.90
18317;DHT22;9284;52.298;21.164;2022-12-18T01:10:50;-5.00;99.90
18317;DHT22;9284;52.298;21.164;2022-12-18T01:13:21;-4.90;99.90
18317;DHT22;9284;52.298;21.164;2022-12-18T01:15:51;-5.00;99.90
18317;DHT22;9284;52.298;21.164;2022-12-18T01:18:24;-4.90;1.00
18317;DHT22;9284;52.298;21.164;2022-12-18T01:20:54;-4.90;99.90
18317;DHT22;9284;52.298;21.164;2022-12-18T01:23:23;-5.00;99.90
18317;DHT22;9284;52.298;21.164;2022-12-18T01:25:51;-5.00;99.90
18317;DHT22;9284;52.298;21.164;2022-12-18T01:28:22;-4.90;99.90
18317;DHT22;9284;52.298;21.164;2022-12-18T01:30:50;-4.90;1.00
18317;DHT22;9284;52.298;21.164;2022-12-18T01:33:20;-4.90;99.90
18317;DHT22;9284;52.298;21.164;2022-12-18T01:35:59;-4.90;1.00
18317;DHT22;9284;52.298;21.164;2022-12-18T01:38:29;-4.80;1.00
18317;DHT22;9284;52.298;21.164;2022-12-18T01:40:58;-4.90;99.90
18317;DHT22;9284;52.298;21.164;2022-12-18T01:43:50;-4.60;99.90
18317;DHT22;9284;52.298;21.164;2022-12-18T01:46:23;-4.80;99.90
18317;DHT22;9284;52.298;21.164;2022-12-18T01:48:57;-4.80;99.90
18317;DHT22;9284;52.298;21.164;2022-12-18T01:51:28;-4.60;99.90
18317;DHT22;9284;52.298;21.164;2022-12-18T01:54:00;-4.60;99.90
18317;DHT22;9284;52.298;21.164;2022-12-18T01:56:29;-4.70;99.90
18317;DHT22;9284;52.298;21.164;2022-12-18T01:59:01;-4.70;99.90
18317;DHT22;9284;52.298;21.164;2022-12-18T02:01:32;-4.80;99.90
18317;DHT22;9284;52.298;21.164;2022-12-18T02:04:19;-4.80;99.90
18317;DHT22;9284;52.298;21.164;2022-12-18T02:06:52;-4.80;99.90
18317;DHT22;9284;52.298;21.164;2022-12-18T02:09:29;-4.70;99.90
18317;DHT22;9284;52.298;21.164;2022-12-18T02:12:05;-4.70;1.00
18317;DHT22;9284;52.298;21.164;2022-12-18T02:14:41;-4.60;99.90
18317;DHT22;9284;52.298;21.164;2022-12-18T02:17:17;-4.80;99.90
18317;DHT22;9284;52.298;21.164;2022-12-18T02:20:04;-4.60;99.90
18317;DHT22;9284;52.298;21.164;2022-12-18T02:22:45;-4.60;99.90
18317;DHT22;9284;52.298;21.164;2022-12-18T02:25:30;-4.70;99.90
18317;DHT22;9284;52.298;21.164;2022-12-18T02:28:11;-4.70;99.90
18317;DHT22;9284;52.298;21.164;2022-12-18T02:30:44;-4.60;99.90
18317;DHT22;9284;52.298;21.164;2022-12-18T02:33:15;-4.60;1.00
18317;DHT22;9284;52.298;21.164;2022-12-18T02:35:45;-4.70;1.00
18317;DHT22;9284;52.298;21.164;2022-12-18T02:38:15;-4.60;99.90
18317;DHT22;9284;52.298;21.164;2022-12-18T02:40:49;-4.60;1.00
18317;DHT22;9284;52.298;21.164;2022-12-18T02:43:21;-4.60;99.90
18317;DHT22;9284;52.298;21.164;2022-12-18T02:45:55;-4.70;1.00
18317;DHT22;9284;52.298;21.164;2022-12-18T02:48:29;-4.60;99.90
18317;DHT22;9284;52.298;21.164;2022-12-18T02:51:04;-4.80;99.90
18317;DHT22;9284;52.298;21.164;2022-12-18T02:53:46;-4.80;1.00
18317;DHT22;9284;52.298;21.164;2022-12-18T02:56:21;-4.80;1.00
18317;DHT22;9284;52.298;21.164;2022-12-18T02:58:59;-4.70;1.00
18317;DHT22;9284;52.298;21.164;2022-12-18T03:01:45;-4.80;1.00
18317;DHT22;9284;52.298;21.164;2022-12-18T03:04:23;-4.80;1.00
18317;DHT22;9284;52.298;21.164;2022-12-18T03:07:00;-4.80;1.00
18317;DHT22;9284;52.298;21.164;2022-12-18T03:09:37;-4.80;1.00
18317;DHT22;9284;52.298;21.164;2022-12-18T03:12:13;-4.80;1.00
18317;DHT22;9284;52.298;21.164;2022-12-18T03:14:59;-4.90;99.90
18317;DHT22;9284;52.298;21.164;2022-12-18T03:17:33;-4.90;99.90
18317;DHT22;9284;52.298;21.164;2022-12-18T03:20:05;-4.90;99.90
18317;DHT22;9284;52.298;21.164;2022-12-18T03:22:37;-4.90;45.90
18317;DHT22;9284;52.298;21.164;2022-12-18T03:25:09;-5.00;1.00
18317;DHT22;9284;52.298;21.164;2022-12-18T03:27:43;-5.00;1.00
18317;DHT22;9284;52.298;21.164;2022-12-18T03:30:17;-5.10;1.00
18317;DHT22;9284;52.298;21.164;2022-12-18T03:32:53;-4.90;1.00
18317;DHT22;9284;52.298;21.164;2022-12-18T03:35:30;-5.10;1.00
18317;DHT22;9284;52.298;21.164;2022-12-18T03:38:00;-4.90;13.90
18317;DHT22;9284;52.298;21.164;2022-12-18T03:40:33;-5.00;70.20
18317;DHT22;9284;52.298;21.164;2022-12-18T03:43:08;-5.10;1.00
18317;DHT22;9284;52.298;21.164;2022-12-18T03:45:44;-5.10;1.00
18317;DHT22;9284;52.298;21.164;2022-12-18T03:48:20;-5.10;1.00
18317;DHT22;9284;52.298;21.164;2022-12-18T03:50:57;-5.20;1.00
18317;DHT22;9284;52.298;21.164;2022-12-18T03:53:35;-5.20;1.00
18317;DHT22;9284;52.298;21.164;2022-12-18T03:56:07;-5.10;1.00
18317;DHT22;9284;52.298;21.164;2022-12-18T03:58:40;-5.30;1.00
18317;DHT22;9284;52.298;21.164;2022-12-18T04:01:23;-5.20;1.00
18317;DHT22;9284;52.298;21.164;2022-12-18T04:03:57;-5.30;1.00
18317;DHT22;9284;52.298;21.164;2022-12-18T04:06:29;-5.40;1.00
18317;DHT22;9284;52.298;21.164;2022-12-18T04:08:58;-5.40;1.00
18317;DHT22;9284;52.298;21.164;2022-12-18T04:11:31;-5.30;1.00
18317;DHT22;9284;52.298;21.164;2022-12-18T04:14:03;-5.40;1.00
18317;DHT22;9284;52.298;21.164;2022-12-18T04:16:35;-5.40;30.40
18317;DHT22;9284;52.298;21.164;2022-12-18T04:19:07;-5.40;1.00
18317;DHT22;9284;52.298;21.164;2022-12-18T04:21:40;-5.40;1.00
18317;DHT22;9284;52.298;21.164;2022-12-18T04:24:14;-5.50;99.90
18317;DHT22;9284;52.298;21.164;2022-12-18T04:27:03;-5.30;99.90
18317;DHT22;9284;52.298;21.164;2022-12-18T04:29:43;-5.60;95.60
18317;DHT22;9284;52.298;21.164;2022-12-18T04:32:13;-5.50;99.90
18317;DHT22;9284;52.298;21.164;2022-12-18T04:34:44;-5.50;99.90
18317;DHT22;9284;52.298;21.164;2022-12-18T04:37:13;-5.40;99.90
18317;DHT22;9284;52.298;21.164;2022-12-18T04:39:43;-5.40;99.90
18317;DHT22;9284;52.298;21.164;2022-12-18T04:42:19;-5.40;87.90
18317;DHT22;9284;52.298;21.164;2022-12-18T04:44:51;-5.50;99.90
18317;DHT22;9284;52.298;21.164;2022-12-18T04:47:21;-5.40;1.00
18317;DHT22;9284;52.298;21.164;2022-12-18T04:49:49;-5.40;99.90
18317;DHT22;9284;52.298;21.164;2022-12-18T04:52:18;-5.40;99.90
18317;DHT22;9284;52.298;21.164;2022-12-18T04:54:48;-5.50;99.90
18317;DHT22;9284;52.298;21.164;2022-12-18T04:57:19;-5.40;99.90
18317;DHT22;9284;52.298;21.164;2022-12-18T04:59:50;-5.30;92.00
18317;DHT22;9284;52.298;21.164;2022-12-18T05:02:23;-5.40;1.00
18317;DHT22;9284;52.298;21.164;2022-12-18T05:04:53;-5.50;1.00
18317;DHT22;9284;52.298;21.164;2022-12-18T05:07:22;-5.50;99.90
18317;DHT22;9284;52.298;21.164;2022-12-18T05:09:54;-5.50;1.00
18317;DHT22;9284;52.298;21.164;2022-12-18T05:12:22;-5.50;1.00
18317;DHT22;9284;52.298;21.164;2022-12-18T05:14:53;-5.50;14.40
18317;DHT22;9284;52.298;21.164;2022-12-18T05:17:23;-5.60;1.00
18317;DHT22;9284;52.298;21.164;2022-12-18T05:19:52;-5.50;99.90
18317;DHT22;9284;52.298;21.164;2022-12-18T05:22:20;-5.60;99.90
18317;DHT22;9284;52.298;21.164;2022-12-18T05:24:51;-5.50;1.00
18317;DHT22;9284;52.298;21.164;2022-12-18T05:27:19;-5.60;99.90
18317;DHT22;9284;52.298;21.164;2022-12-18T05:29:48;-5.40;99.90
18317;DHT22;9284;52.298;21.164;2022-12-18T05:32:18;-5.60;99.90
18317;DHT22;9284;52.298;21.164;2022-12-18T05:34:48;-5.70;99.90
18317;DHT22;9284;52.298;21.164;2022-12-18T05:37:16;-5.50;99.90
18317;DHT22;9284;52.298;21.164;2022-12-18T05:39:45;-5.60;99.90
18317;DHT22;9284;52.298;21.164;2022-12-18T05:42:15;-5.70;99.90
18317;DHT22;9284;52.298;21.164;2022-12-18T05:44:47;-5.60;99.90
18317;DHT22;9284;52.298;21.164;2022-12-18T05:47:15;-5.60;1.00
18317;DHT22;9284;52.298;21.164;2022-12-18T05:49:44;-5.70;99.90
18317;DHT22;9284;52.298;21.164;2022-12-18T05:52:16;-5.70;99.90
18317;DHT22;9284;52.298;21.164;2022-12-18T05:54:46;-5.80;99.90
18317;DHT22;9284;52.298;21.164;2022-12-18T05:57:16;-5.80;99.90
18317;DHT22;9284;52.298;21.164;2022-12-18T05:59:46;-5.90;99.90
18317;DHT22;9284;52.298;21.164;2022-12-18T06:02:17;-5.80;99.90
18317;DHT22;9284;52.298;21.164;2022-12-18T06:04:45;-5.80;99.90
18317;DHT22;9284;52.298;21.164;2022-12-18T06:07:18;-5.70;1.00
18317;DHT22;9284;52.298;21.164;2022-12-18T06:09:46;-5.70;1.00
18317;DHT22;9284;52.298;21.164;2022-12-18T06:12:18;-5.70;1.00
18317;DHT22;9284;52.298;21.164;2022-12-18T06:14:47;-5.80;42.50
18317;DHT22;9284;52.298;21.164;2022-12-18T06:17:15;-5.80;1.00
18317;DHT22;9284;52.298;21.164;2022-12-18T06:19:45;-5.80;1.00
18317;DHT22;9284;52.298;21.164;2022-12-18T06:22:19;-6.00;1.00
18317;DHT22;9284;52.298;21.164;2022-12-18T06:24:48;-5.90;1.00
18317;DHT22;9284;52.298;21.164;2022-12-18T06:27:22;-6.00;1.00
18317;DHT22;9284;52.298;21.164;2022-12-18T06:29:55;-6.00;78.30
18317;DHT22;9284;52.298;21.164;2022-12-18T06:32:23;-6.00;99.90
18317;DHT22;9284;52.298;21.164;2022-12-18T06:34:54;-6.00;1.00
18317;DHT22;9284;52.298;21.164;2022-12-18T06:37:25;-6.00;99.90
18317;DHT22;9284;52.298;21.164;2022-12-18T06:39:56;-6.00;99.90
18317;DHT22;9284;52.298;21.164;2022-12-18T06:42:32;-5.90;99.90
18317;DHT22;9284;52.298;21.164;2022-12-18T06:45:00;-5.90;99.90
18317;DHT22;9284;52.298;21.164;2022-12-18T06:47:31;-5.70;1.00
18317;DHT22;9284;52.298;21.164;2022-12-18T06:50:00;-5.80;1.00
18317;DHT22;9284;52.298;21.164;2022-12-18T06:52:32;-5.80;1.00
18317;DHT22;9284;52.298;21.164;2022-12-18T06:55:02;-5.80;1.00
18317;DHT22;9284;52.298;21.164;2022-12-18T06:57:32;-5.70;1.00
18317;DHT22;9284;52.298;21.164;2022-12-18T07:00:09;-5.70;1.00
18317;DHT22;9284;52.298;21.164;2022-12-18T07:02:38;-5.80;1.00
18317;DHT22;9284;52.298;21.164;2022-12-18T07:05:08;-5.80;99.90
18317;DHT22;9284;52.298;21.164;2022-12-18T07:07:39;-5.80;99.90
18317;DHT22;9284;52.298;21.164;2022-12-18T07:10:15;-5.80;99.90
18317;DHT22;9284;52.298;21.164;2022-12-18T07:12:43;-5.80;99.90
18317;DHT22;9284;52.298;21.164;2022-12-18T07:15:20;-5.80;99.90
18317;DHT22;9284;52.298;21.164;2022-12-18T07:17:50;-5.80;99.90
18317;DHT22;9284;52.298;21.164;2022-12-18T07:20:21;-5.80;99.90
18317;DHT22;9284;52.298;21.164;2022-12-18T07:22:51;-5.80;1.00
18317;DHT22;9284;52.298;21.164;2022-12-18T07:25:22;-5.80;1.00
18317;DHT22;9284;52.298;21.164;2022-12-18T07:27:54;-5.70;1.00
18317;DHT22;9284;52.298;21.164;2022-12-18T07:30:29;-5.60;1.00
18317;DHT22;9284;52.298;21.164;2022-12-18T07:32:57;-5.80;1.00
18317;DHT22;9284;52.298;21.164;2022-12-18T07:35:32;-5.80;99.90
18317;DHT22;9284;52.298;21.164;2022-12-18T07:38:03;-5.80;99.90
18317;DHT22;9284;52.298;21.164;2022-12-18T07:40:32;-6.00;1.00
18317;DHT22;9284;52.298;21.164;2022-12-18T07:43:01;-5.90;99.90
18317;DHT22;9284;52.298;21.164;2022-12-18T07:45:32;-5.90;1.00
18317;DHT22;9284;52.298;21.164;2022-12-18T07:48:05;-5.80;13.50
18317;DHT22;9284;52.298;21.164;2022-12-18T07:50:40;-5.90;16.30
18317;DHT22;9284;52.298;21.164;2022-12-18T07:53:12;-5.80;99.90
18317;DHT22;9284;52.298;21.164;2022-12-18T07:55:41;-5.80;99.90
18317;DHT22;9284;52.298;21.164;2022-12-18T07:58:39;-5.90;1.00
18317;DHT22;9284;52.298;21.164;2022-12-18T08:01:11;-5.70;1.00
18317;DHT22;9284;52.298;21.164;2022-12-18T08:03:40;-5.60;99.90
18317;DHT22;9284;52.298;21.164;2022-12-18T08:06:10;-5.60;1.00
18317;DHT22;9284;52.298;21.164;2022-12-18T08:08:43;-5.60;21.70
18317;DHT22;9284;52.298;21.164;2022-12-18T08:11:14;-5.50;59.40
18317;DHT22;9284;52.298;21.164;2022-12-18T08:13:45;-5.50;1.00
18317;DHT22;9284;52.298;21.164;2022-12-18T08:16:16;-5.30;1.00
18317;DHT22;9284;52.298;21.164;2022-12-18T08:18:56;-5.20;1.00
18317;DHT22;9284;52.298;21.164;2022-12-18T08:21:28;-5.30;99.10
18317;DHT22;9284;52.298;21.164;2022-12-18T08:24:00;-5.40;1.00
18317;DHT22;9284;52.298;21.164;2022-12-18T08:26:31;-5.40;44.00
18317;DHT22;9284;52.298;21.164;2022-12-18T08:29:00;-5.30;99.90
18317;DHT22;9284;52.298;21.164;2022-12-18T08:31:31;-5.40;1.00
18317;DHT22;9284;52.298;21.164;2022-12-18T08:34:00;-5.30;99.90
18317;DHT22;9284;52.298;21.164;2022-12-18T08:36:28;-5.20;1.00
18317;DHT22;9284;52.298;21.164;2022-12-18T08:38:57;-5.20;1.00
18317;DHT22;9284;52.298;21.164;2022-12-18T08:41:27;-5.20;1.00
18317;DHT22;9284;52.298;21.164;2022-12-18T08:44:00;-5.30;1.00
18317;DHT22;9284;52.298;21.164;2022-12-18T08:46:46;-5.10;1.00
18317;DHT22;9284;52.298;21.164;2022-12-18T08:49:14;-5.10;1.00
18317;DHT22;9284;52.298;21.164;2022-12-18T08:51:43;-5.00;1.00
18317;DHT22;9284;52.298;21.164;2022-12-18T08:54:12;-4.80;1.00
18317;DHT22;9284;52.298;21.164;2022-12-18T08:56:45;-4.80;99.90
18317;DHT22;9284;52.298;21.164;2022-12-18T08:59:13;-4.90;69.40
18317;DHT22;9284;52.298;21.164;2022-12-18T09:01:46;-4.90;99.90
18317;DHT22;9284;52.298;21.164;2022-12-18T09:04:15;-4.80;99.90
18317;DHT22;9284;52.298;21.164;2022-12-18T09:06:43;-4.70;99.90
18317;DHT22;9284;52.298;21.164;2022-12-18T09:09:12;-4.70;99.90
18317;DHT22;9284;52.298;21.164;2022-12-18T09:11:40;-4.80;99.90
18317;DHT22;9284;52.298;21.164;2022-12-18T09:14:10;-4.70;99.90
18317;DHT22;9284;52.298;21.164;2022-12-18T09:16:38;-4.50;99.90
18317;DHT22;9284;52.298;21.164;2022-12-18T09:19:11;-4.60;99.90
18317;DHT22;9284;52.298;21.164;2022-12-18T09:21:44;-4.60;99.90
18317;DHT22;9284;52.298;21.164;2022-12-18T09:24:15;-4.30;99.90
18317;DHT22;9284;52.298;21.164;2022-12-18T09:26:44;-4.30;99.90
18317;DHT22;9284;52.298;21.164;2022-12-18T09:29:15;-4.20;54.80
18317;DHT22;9284;52.298;21.164;2022-12-18T09:31:45;-4.10;12.60
18317;DHT22;9284;52.298;21.164;2022-12-18T09:34:13;-4.10;99.90
18317;DHT22;9284;52.298;21.164;2022-12-18T09:36:42;-4.00;27.60
18317;DHT22;9284;52.298;21.164;2022-12-18T09:39:10;-4.00;99.90
18317;DHT22;9284;52.298;21.164;2022-12-18T09:41:46;-3.90;1.00
18317;DHT22;9284;52.298;21.164;2022-12-18T09:44:23;-4.00;1.00
18317;DHT22;9284;52.298;21.164;2022-12-18T09:46:59;-3.90;99.90
18317;DHT22;9284;52.298;21.164;2022-12-18T09:49:34;-3.80;1.00
18317;DHT22;9284;52.298;21.164;2022-12-18T09:52:11;-3.60;99.90
18317;DHT22;9284;52.298;21.164;2022-12-18T09:54:41;-3.60;99.90
18317;DHT22;9284;52.298;21.164;2022-12-18T09:57:13;-3.40;48.50
18317;DHT22;9284;52.298;21.164;2022-12-18T09:59:47;-3.40;1.00
18317;DHT22;9284;52.298;21.164;2022-12-18T10:02:19;-3.60;99.90
18317;DHT22;9284;52.298;21.164;2022-12-18T10:05:02;-3.60;99.90
18317;DHT22;9284;52.298;21.164;2022-12-18T10:07:43;-3.60;1.00
18317;DHT22;9284;52.298;21.164;2022-12-18T10:10:24;-3.40;1.00
18317;DHT22;9284;52.298;21.164;2022-12-18T10:13:00;-3.40;1.00
18317;DHT22;9284;52.298;21.164;2022-12-18T10:15:36;-3.40;1.00
18317;DHT22;9284;52.298;21.164;2022-12-18T10:18:19;-3.20;99.90
18317;DHT22;9284;52.298;21.164;2022-12-18T10:20:50;-3.20;99.90
18317;DHT22;9284;52.298;21.164;2022-12-18T10:23:26;-3.10;1.00
18317;DHT22;9284;52.298;21.164;2022-12-18T10:26:02;-3.10;1.00
18317;DHT22;9284;52.298;21.164;2022-12-18T10:28:32;-3.10;1.00
18317;DHT22;9284;52.298;21.164;2022-12-18T10:31:02;-3.10;1.00
18317;DHT22;9284;52.298;21.164;2022-12-18T10:33:33;-3.00;1.00
18317;DHT22;9284;52.298;21.164;2022-12-18T10:36:02;-3.10;99.90
18317;DHT22;9284;52.298;21.164;2022-12-18T10:38:31;-3.00;99.90
18317;DHT22;9284;52.298;21.164;2022-12-18T10:41:01;-2.80;1.00
18317;DHT22;9284;52.298;21.164;2022-12-18T10:43:31;-3.10;77.60
18317;DHT22;9284;52.298;21.164;2022-12-18T10:46:04;-3.00;99.90
18317;DHT22;9284;52.298;21.164;2022-12-18T10:48:34;-2.90;1.00
18317;DHT22;9284;52.298;21.164;2022-12-18T10:51:05;-2.90;1.00
18317;DHT22;9284;52.298;21.164;2022-12-18T10:53:40;-3.10;1.00
18317;DHT22;9284;52.298;21.164;2022-12-18T10:56:10;-3.20;99.90
18317;DHT22;9284;52.298;21.164;2022-12-18T10:58:39;-3.10;1.00
18317;DHT22;9284;52.298;21.164;2022-12-18T11:01:11;-3.10;27.40
18317;DHT22;9284;52.298;21.164;2022-12-18T11:03:42;-3.20;99.90
18317;DHT22;9284;52.298;21.164;2022-12-18T11:06:11;-3.20;99.90
18317;DHT22;9284;52.298;21.164;2022-12-18T11:08:42;-3.10;1.00
18317;DHT22;9284;52.298;21.164;2022-12-18T11:11:20;-3.20;1.00
18317;DHT22;9284;52.298;21.164;2022-12-18T11:14:00;-3.10;1.00
18317;DHT22;9284;52.298;21.164;2022-12-18T11:16:34;-3.00;1.00
18317;DHT22;9284;52.298;21.164;2022-12-18T11:19:30;-3.00;1.00
18317;DHT22;9284;52.298;21.164;2022-12-18T11:22:01;-3.00;99.90
18317;DHT22;9284;52.298;21.164;2022-12-18T11:24:32;-2.90;1.00
18317;DHT22;9284;52.298;21.164;2022-12-18T11:27:02;-2.90;16.20
18317;DHT22;9284;52.298;21.164;2022-12-18T11:29:35;-3.00;99.90
18317;DHT22;9284;52.298;21.164;2022-12-18T11:32:33;-2.90;1.00
18317;DHT22;9284;52.298;21.164;2022-12-18T11:35:10;-2.70;99.90
18317;DHT22;9284;52.298;21.164;2022-12-18T11:37:44;-2.90;1.00
18317;DHT22;9284;52.298;21.164;2022-12-18T11:40:17;-2.70;99.90
18317;DHT22;9284;52.298;21.164;2022-12-18T11:42:51;-2.80;99.90
18317;DHT22;9284;52.298;21.164;2022-12-18T11:45:29;-2.80;1.00
18317;DHT22;9284;52.298;21.164;2022-12-18T11:48:02;-2.70;99.90
18317;DHT22;9284;52.298;21.164;2022-12-18T11:50:41;-2.60;1.00
18317;DHT22;9284;52.298;21.164;2022-12-18T11:53:12;-2.80;1.00
18317;DHT22;9284;52.298;21.164;2022-12-18T11:55:47;-2.90;1.00
18317;DHT22;9284;52.298;21.164;2022-12-18T11:58:26;-2.80;1.00
18317;DHT22;9284;52.298;21.164;2022-12-18T12:01:06;-2.90;99.90
18317;DHT22;9284;52.298;21.164;2022-12-18T12:04:04;-2.90;1.00
18317;DHT22;9284;52.298;21.164;2022-12-18T12:06:42;-2.90;1.00
18317;DHT22;9284;52.298;21.164;2022-12-18T12:09:16;-2.90;1.00
18317;DHT22;9284;52.298;21.164;2022-12-18T12:11:55;-2.90;99.90
18317;DHT22;9284;52.298;21.164;2022-12-18T12:14:35;-2.90;99.90
18317;DHT22;9284;52.298;21.164;2022-12-18T12:17:13;-2.90;1.00
18317;DHT22;9284;52.298;21.164;2022-12-18T12:19:52;-3.00;1.00
18317;DHT22;9284;52.298;21.164;2022-12-18T12:22:27;-3.00;99.90
18317;DHT22;9284;52.298;21.164;2022-12-18T12:25:13;-2.90;99.90
18317;DHT22;9284;52.298;21.164;2022-12-18T12:27:49;-3.00;99.90
18317;DHT22;9284;52.298;21.164;2022-12-18T12:30:25;-2.80;1.00
18317;DHT22;9284;52.298;21.164;2022-12-18T12:33:15;-2.90;99.90
18317;DHT22;9284;52.298;21.164;2022-12-18T12:35:55;-2.90;1.00
18317;DHT22;9284;52.298;21.164;2022-12-18T12:38:28;-3.00;1.00
18317;DHT22;9284;52.298;21.164;2022-12-18T12:40:59;-2.90;99.90
18317;DHT22;9284;52.298;21.164;2022-12-18T12:43:37;-2.80;99.90
18317;DHT22;9284;52.298;21.164;2022-12-18T12:46:17;-2.90;1.00
18317;DHT22;9284;52.298;21.164;2022-12-18T12:48:49;-3.10;1.00
18317;DHT22;9284;52.298;21.164;2022-12-18T12:51:22;-3.10;1.00
18317;DHT22;9284;52.298;21.164;2022-12-18T12:53:53;-3.10;99.90
18317;DHT22;9284;52.298;21.164;2022-12-18T12:56:26;-3.20;1.00
18317;DHT22;9284;52.298;21.164;2022-12-18T12:59:02;-3.30;1.00
18317;DHT22;9284;52.298;21.164;2022-12-18T13:01:37;-3.20;1.00
18317;DHT22;9284;52.298;21.164;2022-12-18T13:04:19;-3.40;1.00
18317;DHT22;9284;52.298;21.164;2022-12-18T13:06:56;-3.30;12.30
18317;DHT22;9284;52.298;21.164;2022-12-18T13:09:30;-3.30;99.90
18317;DHT22;9284;52.298;21.164;2022-12-18T13:12:03;-3.50;99.90
18317;DHT22;9284;52.298;21.164;2022-12-18T13:14:46;-3.40;1.00
18317;DHT22;9284;52.298;21.164;2022-12-18T13:17:26;-3.40;1.00
18317;DHT22;9284;52.298;21.164;2022-12-18T13:20:11;-3.30;99.90
18317;DHT22;9284;52.298;21.164;2022-12-18T13:22:46;-3.30;1.00
18317;DHT22;9284;52.298;21.164;2022-12-18T13:25:33;-3.40;83.50
18317;DHT22;9284;52.298;21.164;2022-12-18T13:28:11;-3.40;1.00
18317;DHT22;9284;52.298;21.164;2022-12-18T13:30:46;-3.40;1.00
18317;DHT22;9284;52.298;21.164;2022-12-18T13:36:35;-3.50;1.00
18317;DHT22;9284;52.298;21.164;2022-12-18T13:39:32;-3.50;1.00
18317;DHT22;9284;52.298;21.164;2022-12-18T13:42:31;-3.60;99.90
18317;DHT22;9284;52.298;21.164;2022-12-18T13:45:59;-3.60;1.00
18317;DHT22;9284;52.298;21.164;2022-12-18T13:48:30;-3.50;1.00
18317;DHT22;9284;52.298;21.164;2022-12-18T13:51:02;-3.60;96.70
18317;DHT22;9284;52.298;21.164;2022-12-18T13:53:36;-3.60;1.00
18317;DHT22;9284;52.298;21.164;2022-12-18T13:56:08;-3.60;99.90
18317;DHT22;9284;52.298;21.164;2022-12-18T13:58:36;-3.60;77.30
18317;DHT22;9284;52.298;21.164;2022-12-18T14:01:21;-3.60;1.00
18317;DHT22;9284;52.298;21.164;2022-12-18T14:03:49;-3.60;1.00
18317;DHT22;9284;52.298;21.164;2022-12-18T14:06:18;-3.60;1.00
18317;DHT22;9284;52.298;21.164;2022-12-18T14:08:54;-3.60;1.00
18317;DHT22;9284;52.298;21.164;2022-12-18T14:11:25;-3.40;1.00
18317;DHT22;9284;52.298;21.164;2022-12-18T14:13:55;-3.50;1.00
18317;DHT22;9284;52.298;21.164;2022-12-18T14:16:25;-3.60;99.90
18317;DHT22;9284;52.298;21.164;2022-12-18T14:18:55;-3.60;99.90
18317;DHT22;9284;52.298;21.164;2022-12-18T14:21:47;-3.50;1.00
18317;DHT22;9284;52.298;21.164;2022-12-18T14:24:20;-3.60;99.90
18317;DHT22;9284;52.298;21.164;2022-12-18T14:26:53;-3.60;99.90
18317;DHT22;9284;52.298;21.164;2022-12-18T14:29:24;-3.60;1.00
18317;DHT22;9284;52.298;21.164;2022-12-18T14:32:10;-3.50;1.00
18317;DHT22;9284;52.298;21.164;2022-12-18T14:34:45;-3.70;99.90
18317;DHT22;9284;52.298;21.164;2022-12-18T14:37:15;-3.60;1.00
18317;DHT22;9284;52.298;21.164;2022-12-18T14:39:55;-3.60;1.00
18317;DHT22;9284;52.298;21.164;2022-12-18T14:42:27;-3.50;1.00
18317;DHT22;9284;52.298;21.164;2022-12-18T14:45:34;-3.60;99.90
18317;DHT22;9284;52.298;21.164;2022-12-18T14:48:16;-3.70;99.90
18317;DHT22;9284;52.298;21.164;2022-12-18T14:51:00;-3.60;1.00
18317;DHT22;9284;52.298;21.164;2022-12-18T14:53:35;-3.60;99.90
18317;DHT22;9284;52.298;21.164;2022-12-18T14:56:15;-3.60;1.00
18317;DHT22;9284;52.298;21.164;2022-12-18T14:58:47;-3.40;1.00
18317;DHT22;9284;52.298;21.164;2022-12-18T15:01:23;-3.60;1.00
18317;DHT22;9284;52.298;21.164;2022-12-18T15:03:55;-3.70;99.90
18317;DHT22;9284;52.298;21.164;2022-12-18T15:06:30;-3.70;99.90
18317;DHT22;9284;52.298;21.164;2022-12-18T15:09:00;-3.70;1.00
18317;DHT22;9284;52.298;21.164;2022-12-18T15:11:33;-3.70;99.90
18317;DHT22;9284;52.298;21.164;2022-12-18T15:14:23;-3.60;99.90
18317;DHT22;9284;52.298;21.164;2022-12-18T15:16:53;-3.70;99.90
18317;DHT22;9284;52.298;21.164;2022-12-18T15:19:27;-3.70;1.00
18317;DHT22;9284;52.298;21.164;2022-12-18T15:22:00;-3.50;1.00
18317;DHT22;9284;52.298;21.164;2022-12-18T15:24:33;-3.50;99.90
18317;DHT22;9284;52.298;21.164;2022-12-18T15:27:01;-3.60;99.90
18317;DHT22;9284;52.298;21.164;2022-12-18T15:29:31;-3.50;99.90
18317;DHT22;9284;52.298;21.164;2022-12-18T15:32:01;-3.70;99.90
18317;DHT22;9284;52.298;21.164;2022-12-18T15:34:30;-3.60;1.00
18317;DHT22;9284;52.298;21.164;2022-12-18T15:37:00;-3.60;1.00
18317;DHT22;9284;52.298;21.164;2022-12-18T15:39:28;-3.60;99.90
18317;DHT22;9284;52.298;21.164;2022-12-18T15:41:57;-3.60;99.90
18317;DHT22;9284;52.298;21.164;2022-12-18T15:44:44;-3.60;99.90
18317;DHT22;9284;52.298;21.164;2022-12-18T15:47:13;-3.60;99.90
18317;DHT22;9284;52.298;21.164;2022-12-18T15:49:41;-3.60;99.90
18317;DHT22;9284;52.298;21.164;2022-12-18T15:52:12;-3.60;1.00
18317;DHT22;9284;52.298;21.164;2022-12-18T15:54:52;-3.70;99.90
18317;DHT22;9284;52.298;21.164;2022-12-18T15:57:38;-3.70;16.40
18317;DHT22;9284;52.298;21.164;2022-12-18T16:00:12;-3.80;1.00
18317;DHT22;9284;52.298;21.164;2022-12-18T16:02:40;-3.80;1.00
18317;DHT22;9284;52.298;21.164;2022-12-18T16:05:14;-3.80;1.00
18317;DHT22;9284;52.298;21.164;2022-12-18T16:07:43;-3.80;1.00
18317;DHT22;9284;52.298;21.164;2022-12-18T16:10:12;-3.80;1.00
18317;DHT22;9284;52.298;21.164;2022-12-18T16:12:41;-3.80;1.00
18317;DHT22;9284;52.298;21.164;2022-12-18T16:15:13;-3.80;1.00
18317;DHT22;9284;52.298;21.164;2022-12-18T16:17:48;-3.80;1.00
18317;DHT22;9284;52.298;21.164;2022-12-18T16:20:19;-3.80;1.00